Kendall, WI (54638)

4:02 AM CST on December 08, 2016 (GMT -0600)
Buzzards Roost | | Change Station

Elev 1066 ft 43.79 °N, 90.37 °W | Updated 4 seconds ago

Overcast
Overcast
15.3 °F
Feels Like 7 °F
N
5.6
Wind Variable Wind from WSW
Gusts 9.8 mph

Today
High -- | Low -- °F
--% Chance of Precip.
Yesterday
High -- | Low -- °F
Precip. -- in
Pressure 30.17 in
Visibility 10.0 miles
Clouds Scattered Clouds 1700 ft
Overcast 2800 ft
Windchill 7 °F
Dew Point 3 °F
Humidity 57%
Rainfall 0.00 in
Snow Depth Not available.
7:23 AM 4:24 PM
First Quarter, 62% visible
METAR KVOK 080958Z AUTO 27012KT 10SM -SN SCT017 OVC028 M10/M13 A3011 RMK AO2 CIG 017V028 SLP216 P0000 T10971128
Pressure 30.17 in
Visibility 10.0 miles
Clouds Scattered Clouds 1700 ft
Overcast 2800 ft
Windchill 7 °F
Dew Point 3 °F
Humidity 57%
Rainfall 0.00 in
Snow Depth Not available.
7:23 AM 4:24 PM
First Quarter, 62% visible
METAR KVOK 080958Z AUTO 27012KT 10SM -SN SCT017 OVC028 M10/M13 A3011 RMK AO2 CIG 017V028 SLP216 P0000 T10971128

10-Day Weather Forecast

Almanac

Astronomy

Dec. 08, 2016 Rise Set
Actual Time
Civil Twilight
Nautical Twilight
Astronomical Twilight
Moon
Length of Visible Light
Length of Day
Tomorrow will be .
, % of the Moon is Illuminated

Today's Extremes

State Highs State Lows

Community

WunderPhotos

Upload Photos

1,956,261 photos uploaded!

WunderBlog® & News

Nearby

Air Quality

  Air Quality AQ Index Pollutant
Not available.

Snow Depth

Station Depth Elevation

Earthquake Activity

City Distance Mag. Time & Date
Minimum magnitude displayed is 2.5.

Coastal Water Temperatures

Place Temperature

Stations

Nearby Weather Stations

Station Location Temp. Windchill Dew Point Humidity Wind Precip. Elev Updated Type
                   

Watches & Warnings

There are currently no watches in effect.